Time;durP1;ratioP1;P1;durP2;ratioP2;P2;SDS_P1;SDS_P2;PMS_P1;PMS_P2;Temp;Humidity;BMP_temperature;BMP_pressure;BME280_temperature;BME280_humidity;BME280_pressure;Samples;Min_cycle;Max_cycle;Signal;HPM_P1;HPM_P2
2023/11/01 00:01:25;;;;;;;0.20;0.20;;;;;;;13.77;75.97;97377.96;107097;1277;59110;-87
2023/11/01 00:03:52;;;;;;;2.10;0.30;;;;;;;13.56;77.16;97387.11;107025;1276;76364;-87
2023/11/01 00:06:19;;;;;;;0.60;0.30;;;;;;;13.36;78.41;97401.64;107078;1276;76214;-86
2023/11/01 00:08:47;;;;;;;0.20;0.20;;;;;;;13.17;79.26;97404.86;107482;1276;72691;-87
2023/11/01 00:11:14;;;;;;;0.60;0.30;;;;;;;13.00;79.95;97412.74;107369;1277;60554;-87
2023/11/01 00:13:42;;;;;;;1.20;0.30;;;;;;;12.85;80.51;97429.98;107077;1276;60675;-87
2023/11/01 00:16:09;;;;;;;0.30;0.20;;;;;;;12.69;81.71;97434.71;107363;1276;74899;-87
2023/11/01 00:18:36;;;;;;;1.40;0.40;;;;;;;12.53;83.08;97448.20;107308;1276;72981;-86
2023/11/01 00:21:03;;;;;;;0.20;0.20;;;;;;;12.41;84.26;97433.02;107311;1276;72787;-86
2023/11/01 00:23:33;;;;;;;0.30;0.20;;;;;;;12.30;85.96;97420.19;107353;1276;61849;-87
2023/11/01 00:26:00;;;;;;;0.50;0.40;;;;;;;12.19;87.48;97425.27;107530;1276;58944;-86
2023/11/01 00:28:27;;;;;;;0.80;0.40;;;;;;;12.10;88.64;97433.84;107524;1277;73899;-86
2023/11/01 00:30:54;;;;;;;0.70;0.60;;;;;;;12.01;90.25;97444.11;107269;1277;73442;-86
2023/11/01 00:33:21;;;;;;;0.40;0.40;;;;;;;11.92;91.72;97451.38;107337;1276;73991;-87
2023/11/01 00:35:49;;;;;;;1.00;0.30;;;;;;;11.84;93.08;97458.54;107126;1277;62042;-86
2023/11/01 00:38:20;;;;;;;0.60;0.30;;;;;;;11.77;94.18;97467.23;107143;1277;59198;-87
2023/11/01 00:40:48;;;;;;;0.50;0.20;;;;;;;11.71;95.10;97464.75;107175;1276;74653;-86
2023/11/01 00:43:15;;;;;;;0.40;0.40;;;;;;;11.66;96.57;97469.30;107314;1277;74285;-86
2023/11/01 00:45:42;;;;;;;0.70;0.50;;;;;;;11.62;97.65;97473.20;107320;1276;71455;-86
2023/11/01 00:48:09;;;;;;;0.60;0.30;;;;;;;11.59;98.25;97478.67;107276;1277;60763;-86
2023/11/01 00:50:36;;;;;;;1.30;0.70;;;;;;;11.55;98.36;97483.48;107408;1276;60275;-86
2023/11/01 00:53:03;;;;;;;0.80;0.60;;;;;;;11.51;98.81;97480.61;107703;1276;73415;-85
2023/11/01 00:55:30;;;;;;;0.50;0.50;;;;;;;11.48;99.71;97484.27;107532;1276;74268;-86
2023/11/01 00:57:57;;;;;;;0.80;0.50;;;;;;;11.48;100.00;97488.05;107365;1276;71332;-85
2023/11/01 01:00:24;;;;;;;0.60;0.40;;;;;;;11.49;100.00;97493.15;107241;1276;59827;-86
2023/11/01 01:02:51;;;;;;;0.80;0.60;;;;;;;11.48;100.00;97505.27;107291;1276;59743;-86
2023/11/01 01:05:18;;;;;;;0.60;0.40;;;;;;;11.45;100.00;97508.02;107287;1276;72922;-85
2023/11/01 01:07:46;;;;;;;1.30;0.60;;;;;;;11.43;100.00;97511.45;107320;1277;75473;-85
2023/11/01 01:10:13;;;;;;;0.40;0.30;;;;;;;11.42;100.00;97516.21;107560;1276;72361;-85
2023/11/01 01:12:40;;;;;;;1.20;0.50;;;;;;;11.42;100.00;97515.14;107545;1276;61905;-85
2023/11/01 01:15:08;;;;;;;0.60;0.60;;;;;;;11.41;100.00;97513.46;107426;1276;59890;-85
2023/11/01 01:17:35;;;;;;;0.70;0.60;;;;;;;11.40;100.00;97511.39;107417;1277;73374;-85
2023/11/01 01:20:02;;;;;;;0.90;0.60;;;;;;;11.38;100.00;97508.30;107286;1278;73220;-85
2023/11/01 01:22:30;;;;;;;1.00;0.80;;;;;;;11.38;100.00;97506.31;107421;1276;73759;-84
2023/11/01 01:24:57;;;;;;;1.20;0.70;;;;;;;11.39;100.00;97506.58;107401;1277;61828;-84
2023/11/01 01:27:24;;;;;;;0.80;0.60;;;;;;;11.39;100.00;97507.25;107686;1276;60455;-84
2023/11/01 01:29:51;;;;;;;0.90;0.70;;;;;;;11.39;100.00;97503.75;107695;1276;73781;-84
2023/11/01 01:32:18;;;;;;;0.70;0.50;;;;;;;11.39;100.00;97503.23;107454;1276;74379;-86
2023/11/01 01:34:45;;;;;;;1.80;0.90;;;;;;;11.38;100.00;97507.00;107522;1276;71437;-86
2023/11/01 01:37:12;;;;;;;0.70;0.70;;;;;;;11.39;100.00;97509.46;107514;1276;59185;-86
2023/11/01 01:39:39;;;;;;;1.80;0.80;;;;;;;11.39;100.00;97507.29;107152;1276;59142;-86
2023/11/01 01:42:06;;;;;;;0.80;0.80;;;;;;;11.38;100.00;97504.48;107151;1276;73638;-86
2023/11/01 01:44:33;;;;;;;0.50;0.50;;;;;;;11.39;100.00;97509.69;107253;1279;74171;-86
2023/11/01 01:47:00;;;;;;;1.60;1.00;;;;;;;11.38;100.00;97508.49;107204;1278;71660;-86
2023/11/01 01:49:27;;;;;;;0.40;0.40;;;;;;;11.36;100.00;97502.71;107099;1278;61898;-85
2023/11/01 01:52:05;;;;;;;1.40;1.00;;;;;;;11.34;100.00;97501.09;107107;1278;60519;-85
2023/11/01 01:54:32;;;;;;;0.80;0.80;;;;;;;11.33;100.00;97502.33;107151;1278;73605;-86
2023/11/01 01:56:59;;;;;;;1.10;0.90;;;;;;;11.30;100.00;97501.09;107097;1279;73177;-86
2023/11/01 01:59:27;;;;;;;0.80;0.80;;;;;;;11.30;100.00;97503.45;107232;1279;72672;-86
2023/11/01 02:01:55;;;;;;;1.60;0.80;;;;;;;11.29;100.00;97509.08;106765;1278;61238;-85
2023/11/01 02:04:22;;;;;;;1.20;0.80;;;;;;;11.29;100.00;97508.54;107259;1279;59592;-86
2023/11/01 02:06:52;;;;;;;1.20;0.90;;;;;;;11.29;100.00;97510.65;107184;1279;73839;-86
2023/11/01 02:09:19;;;;;;;1.20;0.90;;;;;;;11.31;100.00;97515.89;107159;1279;73171;-86
2023/11/01 02:11:46;;;;;;;1.60;0.90;;;;;;;11.32;100.00;97521.38;107125;1279;72647;-86
2023/11/01 02:14:13;;;;;;;0.50;0.50;;;;;;;11.32;100.00;97518.14;107260;1276;61658;-86
2023/11/01 02:16:41;;;;;;;0.70;0.40;;;;;;;11.32;100.00;97523.49;107137;1276;59016;-86
2023/11/01 02:19:08;;;;;;;0.70;0.30;;;;;;;11.32;100.00;97524.02;107303;1276;75429;-86
2023/11/01 02:21:36;;;;;;;3.40;0.40;;;;;;;11.33;100.00;97520.05;107285;1276;74334;-87
2023/11/01 02:24:03;;;;;;;0.30;0.30;;;;;;;11.31;100.00;97519.66;107157;1276;72781;-86
2023/11/01 02:26:31;;;;;;;0.40;0.40;;;;;;;11.30;100.00;97529.79;107148;1276;61955;-86
2023/11/01 02:28:58;;;;;;;0.70;0.50;;;;;;;11.28;100.00;97538.73;107122;1276;60067;-86
2023/11/01 02:31:25;;;;;;;1.30;0.50;;;;;;;11.25;100.00;97535.92;107279;1276;74348;-87
2023/11/01 02:33:52;;;;;;;0.30;0.20;;;;;;;11.24;100.00;97528.70;107258;1276;74167;-86
2023/11/01 02:36:19;;;;;;;2.00;0.50;;;;;;;11.22;100.00;97526.69;107143;1279;71436;-86
2023/11/01 02:38:46;;;;;;;0.50;0.40;;;;;;;11.20;100.00;97528.27;107155;1279;61211;-85
2023/11/01 02:41:14;;;;;;;1.00;0.40;;;;;;;11.18;100.00;97532.55;107292;1277;59189;-85
2023/11/01 02:43:41;;;;;;;0.30;0.30;;;;;;;11.16;100.00;97535.23;107302;1276;74048;-86
2023/11/01 02:46:08;;;;;;;0.80;0.30;;;;;;;11.15;100.00;97545.75;107137;1277;73240;-85
2023/11/01 02:48:35;;;;;;;2.00;0.30;;;;;;;11.12;100.00;97549.98;107297;1277;72672;-85
2023/11/01 02:51:03;;;;;;;0.40;0.30;;;;;;;11.10;100.00;97551.58;107572;1276;59360;-84
2023/11/01 02:53:30;;;;;;;2.10;0.30;;;;;;;11.07;100.00;97551.98;107452;1276;60813;-86
2023/11/01 02:55:57;;;;;;;1.00;0.50;;;;;;;11.04;100.00;97553.83;107355;1276;74688;-86
2023/11/01 02:58:25;;;;;;;1.20;0.30;;;;;;;11.03;100.00;97553.55;107322;1276;72976;-86
2023/11/01 03:00:52;;;;;;;0.20;0.20;;;;;;;11.02;100.00;97557.58;107281;1276;71467;-85
2023/11/01 03:03:19;;;;;;;0.40;0.20;;;;;;;11.00;100.00;97556.83;107262;1276;60472;-86
2023/11/01 03:05:46;;;;;;;0.30;0.30;;;;;;;10.99;100.00;97555.48;107293;1276;60216;-86
2023/11/01 03:08:13;;;;;;;1.40;0.20;;;;;;;10.97;100.00;97555.51;107303;1277;73609;-86
2023/11/01 03:10:40;;;;;;;0.50;0.40;;;;;;;10.95;100.00;97557.47;107301;1276;74404;-86
2023/11/01 03:13:07;;;;;;;0.20;0.20;;;;;;;10.93;100.00;97566.05;107319;1276;72162;-85
2023/11/01 03:15:34;;;;;;;1.00;0.20;;;;;;;10.91;100.00;97573.02;107288;1276;61989;-86
2023/11/01 03:18:01;;;;;;;0.20;0.20;;;;;;;10.90;100.00;97571.56;107283;1276;60325;-86
2023/11/01 03:20:29;;;;;;;0.60;0.20;;;;;;;10.87;100.00;97577.84;107291;1276;74575;-86
2023/11/01 03:22:56;;;;;;;0.20;0.20;;;;;;;10.85;100.00;97581.41;106994;1276;73829;-86
2023/11/01 03:25:23;;;;;;;0.50;0.20;;;;;;;10.83;100.00;97577.42;107257;1276;73901;-86
2023/11/01 03:27:50;;;;;;;1.30;0.40;;;;;;;10.81;100.00;97577.05;107248;1276;62054;-86
2023/11/01 03:30:17;;;;;;;1.10;0.40;;;;;;;10.79;100.00;97577.96;106854;1276;60155;-86
2023/11/01 03:32:44;;;;;;;0.50;0.30;;;;;;;10.76;100.00;97576.75;107345;1277;74539;-85
2023/11/01 03:35:11;;;;;;;0.40;0.40;;;;;;;10.73;100.00;97579.01;107554;1276;74455;-85
2023/11/01 03:37:38;;;;;;;1.00;0.40;;;;;;;10.72;100.00;97581.29;107642;1277;72277;-86
2023/11/01 03:40:06;;;;;;;0.60;0.30;;;;;;;10.69;100.00;97587.22;107676;1277;60448;-87
2023/11/01 03:42:34;;;;;;;1.00;0.70;;;;;;;10.67;100.00;97587.05;107719;1276;59261;-86
2023/11/01 03:45:01;;;;;;;0.70;0.70;;;;;;;10.66;100.00;97593.95;107742;1276;74104;-86
2023/11/01 03:47:29;;;;;;;2.00;0.50;;;;;;;10.65;100.00;97595.44;107711;1277;73778;-86
2023/11/01 03:49:57;;;;;;;0.70;0.40;;;;;;;10.64;100.00;97592.61;107152;1277;71437;-87
2023/11/01 03:52:24;;;;;;;1.20;0.80;;;;;;;10.66;100.00;97591.05;107129;1277;59157;-86
2023/11/01 03:54:51;;;;;;;0.90;0.80;;;;;;;10.67;100.00;97598.11;107315;1277;59428;-87
2023/11/01 03:57:18;;;;;;;2.40;0.70;;;;;;;10.68;100.00;97608.23;107251;1277;73760;-86
2023/11/01 03:59:45;;;;;;;1.50;0.70;;;;;;;10.68;100.00;97610.90;107413;1277;73688;-87
2023/11/01 04:02:12;;;;;;;0.80;0.70;;;;;;;10.70;100.00;97609.34;107191;1277;71737;-87
2023/11/01 04:04:39;;;;;;;1.10;1.00;;;;;;;10.71;100.00;97610.35;107339;1277;61689;-87
2023/11/01 04:07:07;;;;;;;1.10;0.80;;;;;;;10.72;100.00;97605.45;107319;1277;60370;-87
2023/11/01 04:09:34;;;;;;;0.80;0.80;;;;;;;10.73;100.00;97607.25;107543;1277;74695;-87
2023/11/01 04:12:01;;;;;;;1.80;1.00;;;;;;;10.74;100.00;97609.15;107442;1279;74813;-86
2023/11/01 04:14:28;;;;;;;0.80;0.80;;;;;;;10.74;100.00;97613.11;107264;1277;71457;-87
2023/11/01 04:16:55;;;;;;;1.00;0.80;;;;;;;10.74;100.00;97608.84;107244;1278;60785;-87
2023/11/01 04:19:23;;;;;;;1.10;1.00;;;;;;;10.73;100.00;97600.10;107270;1278;60263;-85
2023/11/01 04:21:50;;;;;;;0.80;0.80;;;;;;;10.74;100.00;97601.31;107388;1278;73941;-85
2023/11/01 04:24:17;;;;;;;1.50;1.10;;;;;;;10.73;100.00;97601.56;107141;1278;74041;-85
2023/11/01 04:26:45;;;;;;;1.20;1.00;;;;;;;10.73;100.00;97607.84;107043;1279;73013;-86
2023/11/01 04:29:12;;;;;;;2.00;1.00;;;;;;;10.72;100.00;97612.04;106945;1278;59534;-86
2023/11/01 04:31:39;;;;;;;1.40;1.20;;;;;;;10.70;100.00;97608.83;106998;1279;59175;-86
2023/11/01 04:34:06;;;;;;;1.10;1.00;;;;;;;10.69;100.00;97616.08;107258;1279;74714;-86
2023/11/01 04:36:35;;;;;;;0.80;0.80;;;;;;;10.69;100.00;97620.73;107275;1279;73939;-86
2023/11/01 04:39:03;;;;;;;1.40;1.10;;;;;;;10.68;100.00;97621.84;106915;1280;72386;-85
2023/11/01 04:41:30;;;;;;;1.80;1.20;;;;;;;10.68;100.00;97619.89;106838;1279;63537;-85
2023/11/01 04:43:57;;;;;;;1.20;1.10;;;;;;;10.69;100.00;97627.48;107242;1278;59186;-86
2023/11/01 04:46:24;;;;;;;1.30;1.10;;;;;;;10.70;100.00;97629.23;107528;1278;73631;-84
2023/11/01 04:48:52;;;;;;;1.40;1.20;;;;;;;10.70;100.00;97636.56;107658;1279;73309;-85
2023/11/01 04:51:19;;;;;;;1.20;1.00;;;;;;;10.69;100.00;97640.91;107280;1279;71677;-84
2023/11/01 04:53:46;;;;;;;1.90;1.20;;;;;;;10.68;100.00;97646.36;107583;1279;61766;-86
2023/11/01 04:56:13;;;;;;;2.60;2.40;;;;;;;10.68;100.00;97647.30;107508;1279;59362;-85
2023/11/01 04:58:41;;;;;;;1.40;1.30;;;;;;;10.68;100.00;97643.72;107399;1280;74432;-86
2023/11/01 05:01:08;;;;;;;1.50;1.20;;;;;;;10.67;100.00;97650.58;107503;1279;73311;-87
2023/11/01 05:03:36;;;;;;;1.20;1.10;;;;;;;10.67;100.00;97653.61;107619;1279;71309;-87
2023/11/01 05:06:04;;;;;;;2.00;1.30;;;;;;;10.66;100.00;97662.27;107477;1279;60790;-86
2023/11/01 05:08:32;;;;;;;1.20;1.10;;;;;;;10.65;100.00;97660.59;107509;1279;58784;-87
2023/11/01 05:10:59;;;;;;;1.00;0.90;;;;;;;10.64;100.00;97661.00;107589;1278;74535;-87
2023/11/01 05:13:26;;;;;;;1.10;1.00;;;;;;;10.64;100.00;97666.36;107527;1279;74921;-86
2023/11/01 05:15:54;;;;;;;1.30;1.20;;;;;;;10.64;100.00;97671.38;107467;1278;72604;-87
2023/11/01 05:18:24;;;;;;;2.30;1.40;;;;;;;10.65;100.00;97676.36;107196;1277;60892;-86
2023/11/01 05:20:52;;;;;;;2.50;1.30;;;;;;;10.64;100.00;97675.33;107247;1278;60336;-86
2023/11/01 05:23:19;;;;;;;1.40;1.20;;;;;;;10.64;100.00;97673.88;107201;1279;74589;-86
2023/11/01 05:25:48;;;;;;;2.30;2.10;;;;;;;10.65;100.00;97678.13;107207;1280;74514;-85
2023/11/01 05:28:16;;;;;;;1.50;1.30;;;;;;;10.66;100.00;97680.03;107387;1279;72618;-85
2023/11/01 05:30:45;;;;;;;1.80;1.40;;;;;;;10.66;100.00;97684.69;107257;1279;60496;-84
2023/11/01 05:33:13;;;;;;;2.30;1.60;;;;;;;10.66;100.00;97684.13;107403;1278;60186;-84
2023/11/01 05:35:42;;;;;;;2.50;1.50;;;;;;;10.66;100.00;97688.11;107308;1278;74626;-84
2023/11/01 05:38:09;;;;;;;2.00;1.90;;;;;;;10.67;100.00;97691.77;107275;1279;75297;-85
2023/11/01 05:40:37;;;;;;;2.50;2.00;;;;;;;10.67;100.00;97697.70;107365;1278;72498;-85
2023/11/01 05:43:04;;;;;;;1.40;1.20;;;;;;;10.66;100.00;97700.59;107380;1278;60692;-85
2023/11/01 05:45:32;;;;;;;1.90;1.30;;;;;;;10.66;100.00;97698.60;107491;1279;60599;-85
2023/11/01 05:48:06;;;;;;;1.30;1.20;;;;;;;10.68;100.00;97711.59;107507;1277;74029;-86
2023/11/01 05:50:34;;;;;;;2.10;2.00;;;;;;;10.68;100.00;97717.47;107409;1281;73923;-86
2023/11/01 05:53:02;;;;;;;2.20;2.00;;;;;;;10.69;100.00;97722.23;107166;1279;71403;-85
2023/11/01 05:55:30;;;;;;;1.50;1.30;;;;;;;10.70;100.00;97735.96;107284;1278;62791;-85
2023/11/01 05:58:14;;;;;;;1.50;1.40;;;;;;;10.71;100.00;97741.80;107399;1279;59461;-86
2023/11/01 06:00:41;;;;;;;1.30;1.20;;;;;;;10.72;100.00;97744.90;107314;1278;73331;-86
2023/11/01 06:03:08;;;;;;;1.20;1.00;;;;;;;10.75;100.00;97748.43;107279;1278;73164;-86
2023/11/01 06:05:36;;;;;;;1.80;1.40;;;;;;;10.76;100.00;97757.62;107043;1278;73628;-85
2023/11/01 06:08:03;;;;;;;2.20;2.00;;;;;;;10.77;100.00;97759.87;106930;1279;61617;-85
2023/11/01 06:10:31;;;;;;;2.40;1.60;;;;;;;10.78;100.00;97762.62;107152;1279;61187;-87
2023/11/01 06:12:58;;;;;;;1.90;1.50;;;;;;;10.80;100.00;97766.46;107221;1276;72542;-85
2023/11/01 06:15:25;;;;;;;1.90;1.30;;;;;;;10.79;100.00;97765.61;107214;1276;75496;-85
2023/11/01 06:17:52;;;;;;;2.40;1.40;;;;;;;10.80;100.00;97769.81;107188;1276;71507;-83
2023/11/01 06:20:20;;;;;;;1.80;1.30;;;;;;;10.83;100.00;97779.09;106997;1276;59875;-86
2023/11/01 06:22:47;;;;;;;1.20;1.00;;;;;;;10.84;100.00;97775.81;107248;1277;59421;-85
2023/11/01 06:25:16;;;;;;;1.90;1.50;;;;;;;10.85;100.00;97778.92;107199;1277;74112;-84
2023/11/01 06:27:44;;;;;;;1.90;1.60;;;;;;;10.88;100.00;97781.09;107232;1276;74847;-85
2023/11/01 06:30:11;;;;;;;1.90;1.50;;;;;;;10.90;100.00;97783.43;107271;1277;72646;-86
2023/11/01 06:32:38;;;;;;;2.60;1.60;;;;;;;10.91;100.00;97785.63;107249;1279;59251;-85
2023/11/01 06:35:06;;;;;;;1.80;1.70;;;;;;;10.93;100.00;97786.93;107212;1277;61464;-85
2023/11/01 06:37:33;;;;;;;2.50;1.30;;;;;;;10.95;100.00;97786.41;107155;1276;74035;-85
2023/11/01 06:40:02;;;;;;;1.30;1.20;;;;;;;10.99;100.00;97792.17;107254;1276;75371;-86
2023/11/01 06:42:29;;;;;;;1.60;1.40;;;;;;;11.01;100.00;97794.65;106984;1276;73864;-86
2023/11/01 06:44:56;;;;;;;2.90;2.60;;;;;;;11.03;100.00;97794.55;107163;1277;59640;-85
2023/11/01 06:47:24;;;;;;;1.70;1.50;;;;;;;11.06;100.00;97802.38;107231;1276;59892;-86
2023/11/01 06:49:51;;;;;;;2.10;1.40;;;;;;;11.09;100.00;97804.81;107488;1276;76066;-87
2023/11/01 06:52:18;;;;;;;1.70;1.50;;;;;;;11.11;100.00;97803.23;107248;1276;73531;-87
2023/11/01 06:54:45;;;;;;;1.90;1.70;;;;;;;11.12;100.00;97808.98;106983;1277;71652;-87
2023/11/01 06:57:13;;;;;;;1.80;1.70;;;;;;;11.13;100.00;97807.89;106987;1277;60677;-87
2023/11/01 06:59:41;;;;;;;1.30;1.20;;;;;;;11.14;100.00;97814.97;106882;1276;59133;-86
2023/11/01 07:02:10;;;;;;;2.20;1.60;;;;;;;11.15;100.00;97815.61;106864;1277;75285;-86
2023/11/01 07:04:39;;;;;;;1.70;1.50;;;;;;;11.16;100.00;97812.84;106971;1277;73119;-87
2023/11/01 07:07:09;;;;;;;1.90;1.50;;;;;;;11.16;100.00;97814.27;106776;1277;73619;-86
2023/11/01 07:09:52;;;;;;;2.10;1.70;;;;;;;11.17;100.00;97820.44;106949;1277;61916;-86
2023/11/01 07:12:23;;;;;;;3.10;2.20;;;;;;;11.18;100.00;97825.04;106592;1277;61246;-86
2023/11/01 07:15:00;;;;;;;2.20;2.00;;;;;;;11.18;100.00;97826.95;106935;1278;74946;-87
2023/11/01 07:17:33;;;;;;;2.30;1.60;;;;;;;11.20;100.00;97830.55;107025;1282;74472;-86
2023/11/01 07:20:02;;;;;;;1.60;1.40;;;;;;;11.22;100.00;97832.58;106530;1277;71273;-85
2023/11/01 07:22:29;;;;;;;1.60;1.50;;;;;;;11.23;100.00;97840.59;106897;1276;61074;-87
2023/11/01 07:24:56;;;;;;;1.50;1.40;;;;;;;11.25;100.00;97837.58;107083;1277;61116;-86
2023/11/01 07:27:24;;;;;;;1.50;1.40;;;;;;;11.27;100.00;97839.75;106966;1277;74700;-87
2023/11/01 07:29:52;;;;;;;3.90;1.90;;;;;;;11.27;100.00;97840.43;107013;1277;74320;-86
2023/11/01 07:32:20;;;;;;;2.20;2.00;;;;;;;11.29;100.00;97840.97;106677;1277;72787;-86
2023/11/01 07:34:50;;;;;;;2.00;1.60;;;;;;;11.31;100.00;97842.44;106767;1277;63407;-89
2023/11/01 07:37:18;;;;;;;1.50;1.40;;;;;;;11.33;100.00;97845.00;106908;1277;61776;-86
2023/11/01 07:39:47;;;;;;;1.50;1.30;;;;;;;11.35;100.00;97853.05;107021;1280;73733;-88
2023/11/01 07:42:18;;;;;;;1.60;1.50;;;;;;;11.36;100.00;97850.84;106894;1277;74891;-87
2023/11/01 07:44:46;;;;;;;2.60;1.50;;;;;;;11.39;100.00;97857.06;106795;1277;72683;-85
2023/11/01 07:47:13;;;;;;;3.00;1.80;;;;;;;11.41;100.00;97861.70;106802;1277;62266;-86
2023/11/01 07:49:40;;;;;;;2.00;1.70;;;;;;;11.43;100.00;97862.49;106896;1277;60866;-86
2023/11/01 07:52:09;;;;;;;2.70;1.90;;;;;;;11.45;100.00;97863.73;106902;1277;73015;-85
2023/11/01 07:54:36;;;;;;;2.50;1.40;;;;;;;11.48;100.00;97863.48;106625;1277;73761;-86
2023/11/01 07:57:06;;;;;;;3.40;2.50;;;;;;;11.51;100.00;97869.67;106832;1277;72793;-87
2023/11/01 07:59:33;;;;;;;2.50;1.90;;;;;;;11.54;100.00;97871.75;106812;1280;61642;-85
2023/11/01 08:02:00;;;;;;;2.30;1.70;;;;;;;11.58;100.00;97873.56;106918;1280;61169;-85
2023/11/01 08:04:31;;;;;;;2.60;1.50;;;;;;;11.64;100.00;97870.11;106591;1279;74419;-87
2023/11/01 08:06:58;;;;;;;3.50;2.10;;;;;;;11.68;100.00;97871.48;106774;1279;75068;-85
2023/11/01 08:09:25;;;;;;;2.40;1.90;;;;;;;11.75;100.00;97875.44;106719;1280;72608;-86
2023/11/01 08:11:52;;;;;;;1.80;1.40;;;;;;;11.79;100.00;97877.59;106572;1281;60212;-86
2023/11/01 08:14:20;;;;;;;3.20;2.10;;;;;;;11.83;99.95;97881.19;106718;1280;60225;-85
2023/11/01 08:16:47;;;;;;;2.00;1.80;;;;;;;11.87;99.97;97883.75;106773;1279;75776;-84
2023/11/01 08:19:15;;;;;;;1.60;1.50;;;;;;;11.90;98.91;97886.42;106611;1281;74108;-85
2023/11/01 08:21:43;;;;;;;1.80;1.60;;;;;;;11.91;98.29;97890.27;106783;1279;72572;-85
2023/11/01 08:24:13;;;;;;;1.70;1.60;;;;;;;11.92;98.74;97893.41;106329;1282;61909;-86
2023/11/01 08:26:43;;;;;;;2.10;1.90;;;;;;;11.94;98.78;97900.24;106762;1280;60171;-86
2023/11/01 08:29:10;;;;;;;3.30;2.00;;;;;;;11.97;98.44;97902.55;106832;1280;74727;-86
2023/11/01 08:31:40;;;;;;;2.00;1.90;;;;;;;11.98;97.98;97910.41;107223;1276;74408;-86
2023/11/01 08:34:11;;;;;;;2.20;1.60;;;;;;;11.96;97.84;97909.13;107249;1277;90651;-85
2023/11/01 08:36:38;;;;;;;1.80;1.60;;;;;;;11.94;97.45;97913.73;107411;1277;60660;-83
2023/11/01 08:39:06;;;;;;;2.80;1.60;;;;;;;11.92;97.27;97911.70;107433;1280;61384;-84
2023/11/01 08:41:33;;;;;;;1.70;1.60;;;;;;;11.92;97.34;97915.48;107403;1277;74519;-84
2023/11/01 08:44:00;;;;;;;1.80;1.70;;;;;;;11.93;97.45;97912.01;106970;1276;72291;-85
2023/11/01 08:46:31;;;;;;;1.80;1.70;;;;;;;11.97;97.17;97920.73;107347;1276;72675;-83
2023/11/01 08:49:00;;;;;;;2.00;1.50;;;;;;;11.99;96.52;97926.30;106848;1277;61776;-85
2023/11/01 08:51:38;;;;;;;2.10;2.00;;;;;;;11.99;95.96;97921.39;106991;1277;60547;-82
2023/11/01 08:54:09;;;;;;;3.10;1.60;;;;;;;12.01;96.09;97924.50;107009;1277;74492;-82
2023/11/01 08:56:36;;;;;;;1.30;1.10;;;;;;;12.03;95.34;97928.80;107035;1277;74545;-82
2023/11/01 08:59:04;;;;;;;1.80;1.70;;;;;;;12.05;94.05;97936.34;106993;1277;71997;-82
2023/11/01 09:01:32;;;;;;;1.30;1.20;;;;;;;12.08;92.90;97937.65;106976;1276;60979;-86
2023/11/01 09:03:59;;;;;;;1.80;1.40;;;;;;;12.12;93.09;97940.79;106742;1280;60298;-85
2023/11/01 09:06:27;;;;;;;1.40;1.20;;;;;;;12.15;93.46;97941.79;107133;1277;74651;-85
2023/11/01 09:08:54;;;;;;;2.00;1.80;;;;;;;12.19;93.36;97940.77;106949;1277;74502;-85
2023/11/01 09:11:23;;;;;;;1.90;1.50;;;;;;;12.22;92.64;97940.46;107019;1277;70685;-86
2023/11/01 09:13:50;;;;;;;1.60;1.50;;;;;;;12.26;92.86;97940.65;106919;1277;61700;-85
2023/11/01 09:16:22;;;;;;;2.90;1.30;;;;;;;12.35;93.44;97941.78;106885;1277;62592;-85
2023/11/01 09:18:49;;;;;;;1.40;1.30;;;;;;;12.44;93.32;97939.01;106716;1277;74690;-87
2023/11/01 09:21:19;;;;;;;3.30;1.30;;;;;;;12.55;92.24;97942.96;106628;1277;74329;-86
2023/11/01 09:23:48;;;;;;;1.40;1.30;;;;;;;12.63;89.41;97942.21;106733;1277;73028;-86
2023/11/01 09:26:17;;;;;;;1.20;0.70;;;;;;;12.72;87.94;97935.41;107050;1276;62899;-85
2023/11/01 09:28:56;;;;;;;1.40;0.70;;;;;;;12.80;87.05;97928.80;106955;1276;61281;-89
2023/11/01 09:31:28;;;;;;;1.90;0.90;;;;;;;12.86;86.33;97927.35;106740;1277;73414;-87
2023/11/01 09:33:58;;;;;;;2.40;0.90;;;;;;;12.93;84.96;97923.73;106646;1277;74259;-86
2023/11/01 09:36:38;;;;;;;;;;;;;;;;;;;;;
2023/11/01 09:39:09;;;;;;;1.10;0.70;;;;;;;13.03;82.96;97929.11;106498;1278;63089;-87
2023/11/01 09:41:48;;;;;;;1.30;0.90;;;;;;;13.07;82.42;97928.12;106558;1280;61108;-86
2023/11/01 09:44:23;;;;;;;1.20;0.90;;;;;;;13.08;81.59;97925.63;106488;1276;75353;-86
2023/11/01 09:46:58;;;;;;;1.30;0.90;;;;;;;13.10;80.57;97926.89;106636;1276;73986;-89
2023/11/01 09:49:31;;;;;;;2.90;0.90;;;;;;;13.11;80.33;97926.27;106746;1277;71727;-85
2023/11/01 09:52:02;;;;;;;1.00;0.90;;;;;;;13.12;80.19;97924.42;106654;1277;62320;-86
2023/11/01 09:54:31;;;;;;;1.70;0.70;;;;;;;13.12;80.67;97918.33;106525;1277;61250;-86
2023/11/01 09:57:08;;;;;;;1.80;1.00;;;;;;;13.13;80.69;97915.69;106542;1276;73739;-85
2023/11/01 09:59:35;;;;;;;2.60;1.30;;;;;;;13.14;81.02;97915.03;106471;1277;74192;-85
2023/11/01 10:02:04;;;;;;;1.40;1.10;;;;;;;13.17;81.39;97919.08;106808;1278;71485;-85
2023/11/01 10:04:32;;;;;;;2.40;0.90;;;;;;;13.22;81.42;97915.59;106965;1277;61859;-88
2023/11/01 10:06:59;;;;;;;2.50;0.90;;;;;;;13.31;80.91;97913.54;106852;1277;59866;-86
2023/11/01 10:09:28;;;;;;;2.30;0.80;;;;;;;13.36;80.91;97908.27;106936;1276;76193;-85
2023/11/01 10:11:58;;;;;;;1.20;1.10;;;;;;;13.45;81.10;97905.15;107236;1279;77338;-86
2023/11/01 10:14:30;;;;;;;1.60;1.10;;;;;;;13.52;81.16;97903.48;107286;1277;72695;-85
2023/11/01 10:16:58;;;;;;;1.10;1.00;;;;;;;13.55;80.61;97899.77;106908;1278;62672;-86
2023/11/01 10:19:25;;;;;;;1.90;0.60;;;;;;;13.55;78.46;97907.34;106854;1277;61446;-85
2023/11/01 10:21:53;;;;;;;1.50;0.70;;;;;;;13.52;76.44;97900.26;106893;1277;74936;-84
2023/11/01 10:24:27;;;;;;;3.90;0.70;;;;;;;13.48;76.28;97905.24;107052;1280;73712;-85
2023/11/01 10:26:56;;;;;;;1.90;0.70;;;;;;;13.46;75.74;97909.23;106977;1277;72013;-85
2023/11/01 10:29:24;;;;;;;3.30;1.10;;;;;;;13.44;75.96;97906.91;107148;1276;60710;-86
2023/11/01 10:32:01;;;;;;;2.30;0.60;;;;;;;13.43;76.10;97904.83;107099;1276;60664;-85
2023/11/01 10:34:30;;;;;;;1.90;0.70;;;;;;;13.42;75.54;97908.48;107319;1277;75109;-85
2023/11/01 10:37:04;;;;;;;0.40;0.40;;;;;;;13.39;75.58;97914.16;107329;1280;74400;-85
2023/11/01 10:39:36;;;;;;;0.70;0.60;;;;;;;13.36;75.96;97921.37;107056;1277;73134;-86
2023/11/01 10:42:03;;;;;;;3.70;1.00;;;;;;;13.32;76.61;97917.92;106995;1277;60479;-85
2023/11/01 10:44:31;;;;;;;0.80;0.80;;;;;;;13.28;77.42;97924.05;107169;1276;59662;-85
2023/11/01 10:46:58;;;;;;;1.30;0.80;;;;;;;13.22;78.27;97926.59;107266;1279;75307;-86
2023/11/01 10:49:25;;;;;;;0.60;0.60;;;;;;;13.17;79.42;97929.56;107054;1277;74256;-85
2023/11/01 10:51:52;;;;;;;1.50;0.80;;;;;;;13.12;79.61;97932.14;106786;1282;73695;-86
2023/11/01 10:54:19;;;;;;;1.30;0.70;;;;;;;13.07;79.18;97930.61;106638;1277;61933;-86
2023/11/01 10:56:48;;;;;;;0.80;0.60;;;;;;;13.03;78.75;97927.18;107071;1276;60842;-86
2023/11/01 10:59:31;;;;;;;0.60;0.60;;;;;;;13.00;77.97;97929.01;106689;1277;75577;-86
2023/11/01 11:02:04;;;;;;;0.50;0.50;;;;;;;12.99;76.80;97932.14;106965;1277;74747;-85
2023/11/01 11:04:47;;;;;;;1.20;0.90;;;;;;;12.98;77.23;97930.05;107203;1278;72521;-85
2023/11/01 11:07:36;;;;;;;1.00;0.70;;;;;;;12.98;77.16;97929.89;107114;1277;60392;-85
2023/11/01 11:10:28;;;;;;;1.40;0.60;;;;;;;12.99;77.05;97924.56;106888;1277;59461;-83
2023/11/01 11:13:12;;;;;;;0.70;0.70;;;;;;;13.01;77.63;97926.75;107117;1277;74855;-85
2023/11/01 11:15:45;;;;;;;1.40;0.80;;;;;;;13.04;77.89;97921.01;107121;1277;74711;-86
2023/11/01 11:18:36;;;;;;;0.50;0.50;;;;;;;13.07;77.63;97921.79;106974;1280;72283;-86
2023/11/01 11:21:08;;;;;;;0.60;0.50;;;;;;;13.10;77.11;97921.16;106739;1276;62345;-85
2023/11/01 11:23:35;;;;;;;0.70;0.70;;;;;;;13.13;76.99;97922.70;106822;1276;60469;-86
2023/11/01 11:26:03;;;;;;;0.70;0.60;;;;;;;13.16;77.04;97930.52;106926;1277;74083;-86
2023/11/01 11:28:47;;;;;;;1.00;0.70;;;;;;;13.20;76.76;97930.02;107069;1280;74144;-86